sensor_id;sensor_type;location;lat;lon;timestamp;pressure;altitude;pressure_sealevel;temperature;humidity
41706;BME280;27385;51.096;17.190;2023-02-19T00:00:30;100070.92;;;5.87;97.81
41706;BME280;27385;51.096;17.190;2023-02-19T00:03:21;100066.58;;;5.87;97.75
41706;BME280;27385;51.096;17.190;2023-02-19T00:05:52;100066.89;;;5.87;97.68
41706;BME280;27385;51.096;17.190;2023-02-19T00:08:23;100062.67;;;5.88;97.79
41706;BME280;27385;51.096;17.190;2023-02-19T00:10:54;100062.41;;;5.89;97.77
41706;BME280;27385;51.096;17.190;2023-02-19T00:13:25;100058.36;;;5.91;97.76
41706;BME280;27385;51.096;17.190;2023-02-19T00:15:56;100055.23;;;5.92;97.83
41706;BME280;27385;51.096;17.190;2023-02-19T00:18:27;100056.21;;;5.93;97.86
41706;BME280;27385;51.096;17.190;2023-02-19T00:20:58;100056.91;;;5.94;97.89
41706;BME280;27385;51.096;17.190;2023-02-19T00:23:29;100060.02;;;5.95;97.81
41706;BME280;27385;51.096;17.190;2023-02-19T00:26:04;100060.67;;;5.95;97.91
41706;BME280;27385;51.096;17.190;2023-02-19T00:28:36;100062.14;;;5.94;97.95
41706;BME280;27385;51.096;17.190;2023-02-19T00:31:09;100055.03;;;5.95;98.05
41706;BME280;27385;51.096;17.190;2023-02-19T00:33:43;100049.70;;;5.97;98.20
41706;BME280;27385;51.096;17.190;2023-02-19T00:36:15;100042.69;;;5.95;98.13
41706;BME280;27385;51.096;17.190;2023-02-19T00:38:46;100040.22;;;5.94;98.22
41706;BME280;27385;51.096;17.190;2023-02-19T00:41:19;100039.88;;;5.94;98.23
41706;BME280;27385;51.096;17.190;2023-02-19T00:43:53;100035.53;;;5.94;98.37
41706;BME280;27385;51.096;17.190;2023-02-19T00:46:26;100032.30;;;5.94;98.38
41706;BME280;27385;51.096;17.190;2023-02-19T00:48:58;100028.52;;;5.93;98.41
41706;BME280;27385;51.096;17.190;2023-02-19T00:51:32;100031.95;;;5.92;98.54
41706;BME280;27385;51.096;17.190;2023-02-19T00:54:03;100026.41;;;5.92;98.57
41706;BME280;27385;51.096;17.190;2023-02-19T00:56:34;100023.92;;;5.91;98.67
41706;BME280;27385;51.096;17.190;2023-02-19T00:59:05;100024.49;;;5.91;98.64
41706;BME280;27385;51.096;17.190;2023-02-19T01:01:36;100021.55;;;5.89;98.73
41706;BME280;27385;51.096;17.190;2023-02-19T01:04:07;100019.32;;;5.89;98.75
41706;BME280;27385;51.096;17.190;2023-02-19T01:06:38;100020.30;;;5.89;98.87
41706;BME280;27385;51.096;17.190;2023-02-19T01:09:09;100019.17;;;5.89;98.82
41706;BME280;27385;51.096;17.190;2023-02-19T01:11:40;100015.55;;;5.88;98.91
41706;BME280;27385;51.096;17.190;2023-02-19T01:14:11;100008.91;;;5.88;98.94
41706;BME280;27385;51.096;17.190;2023-02-19T01:16:42;100006.98;;;5.87;98.93
41706;BME280;27385;51.096;17.190;2023-02-19T01:19:13;100003.37;;;5.86;99.11
41706;BME280;27385;51.096;17.190;2023-02-19T01:21:44;100006.38;;;5.86;99.12
41706;BME280;27385;51.096;17.190;2023-02-19T01:24:15;99999.52;;;5.85;99.26
41706;BME280;27385;51.096;17.190;2023-02-19T01:26:46;99996.45;;;5.85;99.27
41706;BME280;27385;51.096;17.190;2023-02-19T01:29:17;100001.38;;;5.84;99.34
41706;BME280;27385;51.096;17.190;2023-02-19T01:31:48;100001.88;;;5.83;99.40
41706;BME280;27385;51.096;17.190;2023-02-19T01:34:18;99997.05;;;5.83;99.37
41706;BME280;27385;51.096;17.190;2023-02-19T01:36:49;99993.98;;;5.82;99.40
41706;BME280;27385;51.096;17.190;2023-02-19T01:39:20;99992.09;;;5.82;99.53
41706;BME280;27385;51.096;17.190;2023-02-19T01:41:51;99986.98;;;5.81;99.51
41706;BME280;27385;51.096;17.190;2023-02-19T01:47:27;99981.59;;;5.82;99.62
41706;BME280;27385;51.096;17.190;2023-02-19T01:49:59;99981.67;;;5.81;99.64
41706;BME280;27385;51.096;17.190;2023-02-19T01:52:31;99980.38;;;5.82;99.70
41706;BME280;27385;51.096;17.190;2023-02-19T01:55:09;99983.96;;;5.82;99.69
41706;BME280;27385;51.096;17.190;2023-02-19T01:57:44;99981.44;;;5.82;99.73
41706;BME280;27385;51.096;17.190;2023-02-19T02:00:17;99973.92;;;5.81;99.75
41706;BME280;27385;51.096;17.190;2023-02-19T02:02:51;99967.16;;;5.81;99.57
41706;BME280;27385;51.096;17.190;2023-02-19T02:05:39;99960.97;;;5.81;99.67
41706;BME280;27385;51.096;17.190;2023-02-19T02:08:12;99958.53;;;5.80;99.67
41706;BME280;27385;51.096;17.190;2023-02-19T02:11:02;99949.48;;;5.79;99.68
41706;BME280;27385;51.096;17.190;2023-02-19T02:13:36;99937.84;;;5.79;99.73
41706;BME280;27385;51.096;17.190;2023-02-19T02:16:19;99932.55;;;5.79;99.84
41706;BME280;27385;51.096;17.190;2023-02-19T02:19:00;99934.68;;;5.79;99.84
41706;BME280;27385;51.096;17.190;2023-02-19T02:21:54;99935.16;;;5.79;99.97
41706;BME280;27385;51.096;17.190;2023-02-19T02:27:45;99933.12;;;5.78;100.00
41706;BME280;27385;51.096;17.190;2023-02-19T02:30:26;99931.92;;;5.78;100.00
41706;BME280;27385;51.096;17.190;2023-02-19T02:33:03;99929.98;;;5.78;100.00
41706;BME280;27385;51.096;17.190;2023-02-19T02:35:39;99929.24;;;5.78;100.00
41706;BME280;27385;51.096;17.190;2023-02-19T02:38:13;99927.73;;;5.78;100.00
41706;BME280;27385;51.096;17.190;2023-02-19T02:40:47;99925.04;;;5.79;100.00
41706;BME280;27385;51.096;17.190;2023-02-19T02:43:18;99917.00;;;5.80;100.00
41706;BME280;27385;51.096;17.190;2023-02-19T02:45:49;99911.05;;;5.80;100.00
41706;BME280;27385;51.096;17.190;2023-02-19T02:48:27;99908.14;;;5.81;100.00
41706;BME280;27385;51.096;17.190;2023-02-19T02:51:04;99911.71;;;5.84;100.00
41706;BME280;27385;51.096;17.190;2023-02-19T02:53:39;99908.29;;;5.85;100.00
41706;BME280;27385;51.096;17.190;2023-02-19T02:56:29;99907.58;;;5.85;100.00
41706;BME280;27385;51.096;17.190;2023-02-19T02:59:02;99904.77;;;5.83;100.00
41706;BME280;27385;51.096;17.190;2023-02-19T03:01:38;99905.63;;;5.81;100.00
41706;BME280;27385;51.096;17.190;2023-02-19T03:04:34;99898.05;;;5.79;100.00
41706;BME280;27385;51.096;17.190;2023-02-19T03:07:32;99895.70;;;5.78;100.00
41706;BME280;27385;51.096;17.190;2023-02-19T03:10:09;99893.45;;;5.77;100.00
41706;BME280;27385;51.096;17.190;2023-02-19T03:12:43;99896.67;;;5.75;100.00
41706;BME280;27385;51.096;17.190;2023-02-19T03:15:35;99898.94;;;5.73;100.00
41706;BME280;27385;51.096;17.190;2023-02-19T03:18:28;99893.52;;;5.72;100.00
41706;BME280;27385;51.096;17.190;2023-02-19T03:21:19;99891.03;;;5.72;100.00
41706;BME280;27385;51.096;17.190;2023-02-19T03:23:52;99896.23;;;5.72;100.00
41706;BME280;27385;51.096;17.190;2023-02-19T03:26:42;99892.28;;;5.72;100.00
41706;BME280;27385;51.096;17.190;2023-02-19T03:29:23;99890.94;;;5.72;100.00
41706;BME280;27385;51.096;17.190;2023-02-19T03:31:59;99887.13;;;5.72;100.00
41706;BME280;27385;51.096;17.190;2023-02-19T03:34:35;99891.80;;;5.72;100.00
41706;BME280;27385;51.096;17.190;2023-02-19T03:37:09;99889.43;;;5.72;100.00
41706;BME280;27385;51.096;17.190;2023-02-19T03:39:42;99879.22;;;5.72;100.00
41706;BME280;27385;51.096;17.190;2023-02-19T03:42:22;99872.56;;;5.72;100.00
41706;BME280;27385;51.096;17.190;2023-02-19T03:44:59;99864.70;;;5.73;100.00
41706;BME280;27385;51.096;17.190;2023-02-19T03:47:38;99854.97;;;5.73;100.00
41706;BME280;27385;51.096;17.190;2023-02-19T03:50:16;99855.91;;;5.73;100.00
41706;BME280;27385;51.096;17.190;2023-02-19T03:52:54;99852.66;;;5.73;100.00
41706;BME280;27385;51.096;17.190;2023-02-19T03:55:33;99845.05;;;5.75;100.00
41706;BME280;27385;51.096;17.190;2023-02-19T03:58:10;99849.63;;;5.76;100.00
41706;BME280;27385;51.096;17.190;2023-02-19T04:00:51;99851.11;;;5.77;100.00
41706;BME280;27385;51.096;17.190;2023-02-19T04:03:27;99856.23;;;5.77;100.00
41706;BME280;27385;51.096;17.190;2023-02-19T04:06:00;99860.83;;;5.77;100.00
41706;BME280;27385;51.096;17.190;2023-02-19T04:08:34;99866.13;;;5.77;100.00
41706;BME280;27385;51.096;17.190;2023-02-19T04:11:06;99864.41;;;5.79;100.00
41706;BME280;27385;51.096;17.190;2023-02-19T04:13:42;99859.73;;;5.79;100.00
41706;BME280;27385;51.096;17.190;2023-02-19T04:16:17;99856.77;;;5.80;100.00
41706;BME280;27385;51.096;17.190;2023-02-19T04:18:52;99858.17;;;5.81;100.00
41706;BME280;27385;51.096;17.190;2023-02-19T04:21:25;99858.99;;;5.82;100.00
41706;BME280;27385;51.096;17.190;2023-02-19T04:23:59;99854.84;;;5.83;100.00
41706;BME280;27385;51.096;17.190;2023-02-19T04:26:33;99853.85;;;5.84;100.00
41706;BME280;27385;51.096;17.190;2023-02-19T04:29:05;99849.58;;;5.84;100.00
41706;BME280;27385;51.096;17.190;2023-02-19T04:31:36;99853.60;;;5.85;100.00
41706;BME280;27385;51.096;17.190;2023-02-19T04:34:07;99852.52;;;5.84;100.00
41706;BME280;27385;51.096;17.190;2023-02-19T04:36:38;99850.15;;;5.83;100.00
41706;BME280;27385;51.096;17.190;2023-02-19T04:39:09;99843.90;;;5.83;100.00
41706;BME280;27385;51.096;17.190;2023-02-19T04:41:39;99843.13;;;5.83;100.00
41706;BME280;27385;51.096;17.190;2023-02-19T04:44:10;99846.38;;;5.82;100.00
41706;BME280;27385;51.096;17.190;2023-02-19T04:46:41;99848.75;;;5.83;100.00
41706;BME280;27385;51.096;17.190;2023-02-19T04:49:12;99847.98;;;5.82;100.00
41706;BME280;27385;51.096;17.190;2023-02-19T04:51:43;99845.19;;;5.82;100.00
41706;BME280;27385;51.096;17.190;2023-02-19T04:54:14;99840.13;;;5.82;100.00
41706;BME280;27385;51.096;17.190;2023-02-19T04:56:44;99835.61;;;5.83;100.00
41706;BME280;27385;51.096;17.190;2023-02-19T04:59:15;99836.73;;;5.82;100.00
41706;BME280;27385;51.096;17.190;2023-02-19T05:01:46;99835.23;;;5.82;100.00
41706;BME280;27385;51.096;17.190;2023-02-19T05:04:16;99834.67;;;5.82;100.00
41706;BME280;27385;51.096;17.190;2023-02-19T05:06:47;99828.56;;;5.83;100.00
41706;BME280;27385;51.096;17.190;2023-02-19T05:09:18;99823.58;;;5.83;100.00
41706;BME280;27385;51.096;17.190;2023-02-19T05:11:49;99822.47;;;5.83;100.00
41706;BME280;27385;51.096;17.190;2023-02-19T05:14:20;99822.49;;;5.82;100.00
41706;BME280;27385;51.096;17.190;2023-02-19T05:16:50;99823.30;;;5.82;100.00
41706;BME280;27385;51.096;17.190;2023-02-19T05:19:21;99825.15;;;5.81;100.00
41706;BME280;27385;51.096;17.190;2023-02-19T05:21:52;99825.64;;;5.81;100.00
41706;BME280;27385;51.096;17.190;2023-02-19T05:24:22;99820.81;;;5.81;100.00
41706;BME280;27385;51.096;17.190;2023-02-19T05:26:55;99820.95;;;5.81;100.00
41706;BME280;27385;51.096;17.190;2023-02-19T05:29:26;99822.07;;;5.81;100.00
41706;BME280;27385;51.096;17.190;2023-02-19T05:31:56;99821.75;;;5.80;100.00
41706;BME280;27385;51.096;17.190;2023-02-19T05:34:27;99823.59;;;5.80;100.00
41706;BME280;27385;51.096;17.190;2023-02-19T05:36:58;99826.30;;;5.80;100.00
41706;BME280;27385;51.096;17.190;2023-02-19T05:39:28;99823.18;;;5.81;100.00
41706;BME280;27385;51.096;17.190;2023-02-19T05:41:59;99819.05;;;5.81;100.00
41706;BME280;27385;51.096;17.190;2023-02-19T05:44:30;99819.11;;;5.81;100.00
41706;BME280;27385;51.096;17.190;2023-02-19T05:47:01;99817.05;;;5.82;100.00
41706;BME280;27385;51.096;17.190;2023-02-19T05:49:31;99812.13;;;5.82;100.00
41706;BME280;27385;51.096;17.190;2023-02-19T05:52:02;99816.45;;;5.83;100.00
41706;BME280;27385;51.096;17.190;2023-02-19T05:54:33;99818.48;;;5.84;100.00
41706;BME280;27385;51.096;17.190;2023-02-19T05:57:03;99820.30;;;5.84;100.00
41706;BME280;27385;51.096;17.190;2023-02-19T05:59:34;99813.59;;;5.83;100.00
41706;BME280;27385;51.096;17.190;2023-02-19T06:02:05;99814.59;;;5.84;100.00
41706;BME280;27385;51.096;17.190;2023-02-19T06:04:36;99814.77;;;5.86;100.00
41706;BME280;27385;51.096;17.190;2023-02-19T06:07:07;99819.30;;;5.85;100.00
41706;BME280;27385;51.096;17.190;2023-02-19T06:09:37;99816.77;;;5.85;100.00
41706;BME280;27385;51.096;17.190;2023-02-19T06:12:08;99814.67;;;5.84;100.00
41706;BME280;27385;51.096;17.190;2023-02-19T06:14:39;99817.38;;;5.84;100.00
41706;BME280;27385;51.096;17.190;2023-02-19T06:17:09;99817.39;;;5.83;100.00
41706;BME280;27385;51.096;17.190;2023-02-19T06:19:41;99819.73;;;5.82;100.00
41706;BME280;27385;51.096;17.190;2023-02-19T06:22:14;99822.95;;;5.80;100.00
41706;BME280;27385;51.096;17.190;2023-02-19T06:24:47;99824.74;;;5.79;100.00
41706;BME280;27385;51.096;17.190;2023-02-19T06:27:18;99827.78;;;5.79;100.00
41706;BME280;27385;51.096;17.190;2023-02-19T06:29:48;99831.40;;;5.77;100.00
41706;BME280;27385;51.096;17.190;2023-02-19T06:32:19;99836.36;;;5.75;100.00
41706;BME280;27385;51.096;17.190;2023-02-19T06:34:50;99836.97;;;5.72;100.00
41706;BME280;27385;51.096;17.190;2023-02-19T06:37:21;99839.54;;;5.69;100.00
41706;BME280;27385;51.096;17.190;2023-02-19T06:39:52;99840.08;;;5.65;100.00
41706;BME280;27385;51.096;17.190;2023-02-19T06:42:22;99842.98;;;5.64;100.00
41706;BME280;27385;51.096;17.190;2023-02-19T06:44:54;99845.87;;;5.61;100.00
41706;BME280;27385;51.096;17.190;2023-02-19T06:47:25;99849.11;;;5.57;100.00
41706;BME280;27385;51.096;17.190;2023-02-19T06:49:56;99852.20;;;5.55;100.00
41706;BME280;27385;51.096;17.190;2023-02-19T06:52:26;99855.77;;;5.53;100.00
41706;BME280;27385;51.096;17.190;2023-02-19T06:54:57;99858.02;;;5.52;100.00
41706;BME280;27385;51.096;17.190;2023-02-19T06:57:28;99858.98;;;5.51;100.00
41706;BME280;27385;51.096;17.190;2023-02-19T06:59:59;99862.80;;;5.45;100.00
41706;BME280;27385;51.096;17.190;2023-02-19T07:02:29;99854.21;;;5.38;100.00
41706;BME280;27385;51.096;17.190;2023-02-19T07:05:00;99856.20;;;5.35;100.00
41706;BME280;27385;51.096;17.190;2023-02-19T07:07:31;99861.80;;;5.33;100.00
41706;BME280;27385;51.096;17.190;2023-02-19T07:10:02;99864.86;;;5.30;100.00
41706;BME280;27385;51.096;17.190;2023-02-19T07:12:33;99868.76;;;5.27;100.00
41706;BME280;27385;51.096;17.190;2023-02-19T07:15:04;99873.77;;;5.22;100.00
41706;BME280;27385;51.096;17.190;2023-02-19T07:17:35;99874.60;;;5.19;100.00
41706;BME280;27385;51.096;17.190;2023-02-19T07:20:07;99876.19;;;5.12;100.00
41706;BME280;27385;51.096;17.190;2023-02-19T07:22:37;99881.45;;;5.09;100.00
41706;BME280;27385;51.096;17.190;2023-02-19T07:25:08;99890.35;;;5.08;100.00
41706;BME280;27385;51.096;17.190;2023-02-19T07:27:39;99897.98;;;5.04;100.00
41706;BME280;27385;51.096;17.190;2023-02-19T07:30:11;99904.36;;;4.98;100.00
41706;BME280;27385;51.096;17.190;2023-02-19T07:32:43;99909.08;;;4.95;100.00
41706;BME280;27385;51.096;17.190;2023-02-19T07:35:14;99915.45;;;4.89;100.00
41706;BME280;27385;51.096;17.190;2023-02-19T07:37:44;99919.27;;;4.85;100.00
41706;BME280;27385;51.096;17.190;2023-02-19T07:40:15;99929.66;;;4.80;100.00
41706;BME280;27385;51.096;17.190;2023-02-19T07:42:46;99931.18;;;4.72;100.00
41706;BME280;27385;51.096;17.190;2023-02-19T07:45:17;99934.92;;;4.65;100.00
41706;BME280;27385;51.096;17.190;2023-02-19T07:47:48;99935.16;;;4.58;100.00
41706;BME280;27385;51.096;17.190;2023-02-19T07:50:19;99944.35;;;4.50;99.93
41706;BME280;27385;51.096;17.190;2023-02-19T07:52:49;99944.35;;;4.42;99.94
41706;BME280;27385;51.096;17.190;2023-02-19T07:55:20;99948.61;;;4.38;100.00
41706;BME280;27385;51.096;17.190;2023-02-19T07:57:51;99955.10;;;4.33;100.00
41706;BME280;27385;51.096;17.190;2023-02-19T08:00:22;99962.04;;;4.31;100.00
41706;BME280;27385;51.096;17.190;2023-02-19T08:02:54;99970.23;;;4.26;99.73
41706;BME280;27385;51.096;17.190;2023-02-19T08:05:32;99973.73;;;4.18;99.21
41706;BME280;27385;51.096;17.190;2023-02-19T08:08:06;99984.81;;;4.09;98.72
41706;BME280;27385;51.096;17.190;2023-02-19T08:10:37;99984.38;;;4.00;98.67
41706;BME280;27385;51.096;17.190;2023-02-19T08:13:27;99985.42;;;3.89;98.16
41706;BME280;27385;51.096;17.190;2023-02-19T08:16:12;99986.11;;;3.79;98.08
41706;BME280;27385;51.096;17.190;2023-02-19T08:18:44;99990.02;;;3.70;98.25
41706;BME280;27385;51.096;17.190;2023-02-19T08:21:16;99988.67;;;3.62;98.24
41706;BME280;27385;51.096;17.190;2023-02-19T08:23:49;99994.89;;;3.56;98.35
41706;BME280;27385;51.096;17.190;2023-02-19T08:26:19;100003.27;;;3.54;98.70
41706;BME280;27385;51.096;17.190;2023-02-19T08:28:50;100008.69;;;3.51;98.99
41706;BME280;27385;51.096;17.190;2023-02-19T08:31:21;100012.30;;;3.48;98.79
41706;BME280;27385;51.096;17.190;2023-02-19T08:33:52;100018.42;;;3.44;98.83
41706;BME280;27385;51.096;17.190;2023-02-19T08:36:22;100025.80;;;3.42;99.05
41706;BME280;27385;51.096;17.190;2023-02-19T08:38:53;100029.81;;;3.42;99.30
41706;BME280;27385;51.096;17.190;2023-02-19T08:41:24;100034.79;;;3.40;99.15
41706;BME280;27385;51.096;17.190;2023-02-19T08:43:55;100036.36;;;3.37;99.11
41706;BME280;27385;51.096;17.190;2023-02-19T08:46:25;100037.10;;;3.36;99.22
41706;BME280;27385;51.096;17.190;2023-02-19T08:48:56;100041.52;;;3.33;98.81
41706;BME280;27385;51.096;17.190;2023-02-19T08:51:27;100037.98;;;3.29;98.87
41706;BME280;27385;51.096;17.190;2023-02-19T08:53:57;100048.77;;;3.26;98.88
41706;BME280;27385;51.096;17.190;2023-02-19T08:56:31;100053.70;;;3.22;98.91
41706;BME280;27385;51.096;17.190;2023-02-19T08:59:02;100055.92;;;3.18;98.86
41706;BME280;27385;51.096;17.190;2023-02-19T09:01:32;100054.27;;;3.15;98.93
41706;BME280;27385;51.096;17.190;2023-02-19T09:04:03;100055.41;;;3.14;99.01
41706;BME280;27385;51.096;17.190;2023-02-19T09:06:34;100052.75;;;3.10;98.81
41706;BME280;27385;51.096;17.190;2023-02-19T09:09:05;100062.11;;;3.07;99.11
41706;BME280;27385;51.096;17.190;2023-02-19T09:11:39;100067.58;;;3.09;99.52
41706;BME280;27385;51.096;17.190;2023-02-19T09:14:09;100071.57;;;3.10;99.48
41706;BME280;27385;51.096;17.190;2023-02-19T09:16:40;100068.23;;;3.11;99.42
41706;BME280;27385;51.096;17.190;2023-02-19T09:19:11;100067.55;;;3.10;99.41
41706;BME280;27385;51.096;17.190;2023-02-19T09:21:42;100077.86;;;3.11;99.51
41706;BME280;27385;51.096;17.190;2023-02-19T09:24:13;100085.95;;;3.12;99.63
41706;BME280;27385;51.096;17.190;2023-02-19T09:26:44;100090.73;;;3.12;99.72
41706;BME280;27385;51.096;17.190;2023-02-19T09:29:14;100087.02;;;3.13;99.84
41706;BME280;27385;51.096;17.190;2023-02-19T09:31:46;100095.10;;;3.15;99.72
41706;BME280;27385;51.096;17.190;2023-02-19T09:34:17;100100.12;;;3.16;99.48
41706;BME280;27385;51.096;17.190;2023-02-19T09:36:48;100109.30;;;3.17;99.56
41706;BME280;27385;51.096;17.190;2023-02-19T09:39:19;100110.98;;;3.19;99.58
41706;BME280;27385;51.096;17.190;2023-02-19T09:41:52;100115.28;;;3.21;99.74
41706;BME280;27385;51.096;17.190;2023-02-19T09:44:28;100120.73;;;3.23;99.58
41706;BME280;27385;51.096;17.190;2023-02-19T09:47:01;100112.52;;;3.27;99.88
41706;BME280;27385;51.096;17.190;2023-02-19T09:49:36;100113.83;;;3.35;100.00
41706;BME280;27385;51.096;17.190;2023-02-19T09:52:13;100116.62;;;3.43;100.00
41706;BME280;27385;51.096;17.190;2023-02-19T09:54:45;100115.38;;;3.48;99.96
41706;BME280;27385;51.096;17.190;2023-02-19T09:57:18;100118.32;;;3.51;99.62
41706;BME280;27385;51.096;17.190;2023-02-19T09:59:52;100117.86;;;3.55;99.75
41706;BME280;27385;51.096;17.190;2023-02-19T10:02:24;100129.00;;;3.61;99.68
41706;BME280;27385;51.096;17.190;2023-02-19T10:04:56;100132.02;;;3.66;99.76
41706;BME280;27385;51.096;17.190;2023-02-19T10:07:34;100135.52;;;3.71;99.51
41706;BME280;27385;51.096;17.190;2023-02-19T10:10:23;100143.98;;;3.76;99.83
41706;BME280;27385;51.096;17.190;2023-02-19T10:12:58;100149.14;;;3.83;100.00
41706;BME280;27385;51.096;17.190;2023-02-19T10:15:33;100157.86;;;3.90;99.68
41706;BME280;27385;51.096;17.190;2023-02-19T10:18:06;100163.14;;;3.94;98.96
41706;BME280;27385;51.096;17.190;2023-02-19T10:20:38;100162.02;;;3.97;98.98
41706;BME280;27385;51.096;17.190;2023-02-19T10:23:12;100175.13;;;3.99;97.98
41706;BME280;27385;51.096;17.190;2023-02-19T10:25:46;100179.13;;;4.00;97.45
41706;BME280;27385;51.096;17.190;2023-02-19T10:28:20;100185.09;;;3.98;97.14
41706;BME280;27385;51.096;17.190;2023-02-19T10:30:54;100190.81;;;3.97;97.39
41706;BME280;27385;51.096;17.190;2023-02-19T10:33:26;100196.96;;;3.98;96.53
41706;BME280;27385;51.096;17.190;2023-02-19T10:36:00;100201.52;;;3.95;96.00
41706;BME280;27385;51.096;17.190;2023-02-19T10:38:34;100201.27;;;3.95;97.05
41706;BME280;27385;51.096;17.190;2023-02-19T10:41:07;100203.00;;;3.96;96.97
41706;BME280;27385;51.096;17.190;2023-02-19T10:43:44;100206.28;;;3.97;96.49
41706;BME280;27385;51.096;17.190;2023-02-19T10:46:23;100210.27;;;4.02;96.99
41706;BME280;27385;51.096;17.190;2023-02-19T10:48:57;100217.00;;;4.01;94.74
41706;BME280;27385;51.096;17.190;2023-02-19T10:51:33;100221.34;;;4.01;95.69
41706;BME280;27385;51.096;17.190;2023-02-19T10:54:13;100219.67;;;4.01;95.57
41706;BME280;27385;51.096;17.190;2023-02-19T10:56:45;100218.20;;;4.03;96.02
41706;BME280;27385;51.096;17.190;2023-02-19T10:59:24;100224.29;;;4.05;96.39
41706;BME280;27385;51.096;17.190;2023-02-19T11:01:57;100227.40;;;4.08;95.45
41706;BME280;27385;51.096;17.190;2023-02-19T11:04:30;100234.30;;;4.09;95.97
41706;BME280;27385;51.096;17.190;2023-02-19T11:07:10;100235.45;;;4.10;94.56
41706;BME280;27385;51.096;17.190;2023-02-19T11:09:42;100244.06;;;4.14;95.64
41706;BME280;27385;51.096;17.190;2023-02-19T11:12:22;100249.66;;;4.17;93.96
41706;BME280;27385;51.096;17.190;2023-02-19T11:14:54;100247.34;;;4.15;92.29
41706;BME280;27385;51.096;17.190;2023-02-19T11:17:28;100249.27;;;4.13;91.96
41706;BME280;27385;51.096;17.190;2023-02-19T11:20:03;100254.54;;;4.11;91.73
41706;BME280;27385;51.096;17.190;2023-02-19T11:22:39;100250.54;;;4.10;93.09
41706;BME280;27385;51.096;17.190;2023-02-19T11:25:20;100261.38;;;4.12;92.26
41706;BME280;27385;51.096;17.190;2023-02-19T11:27:59;100258.60;;;4.13;91.92
41706;BME280;27385;51.096;17.190;2023-02-19T11:30:40;100260.38;;;4.14;92.03
41706;BME280;27385;51.096;17.190;2023-02-19T11:33:25;100257.88;;;4.14;91.11
41706;BME280;27385;51.096;17.190;2023-02-19T11:38:45;100264.53;;;4.06;92.45
41706;BME280;27385;51.096;17.190;2023-02-19T11:41:23;100260.89;;;4.00;92.75
41706;BME280;27385;51.096;17.190;2023-02-19T11:44:10;100259.40;;;3.97;93.85
41706;BME280;27385;51.096;17.190;2023-02-19T11:46:52;100261.73;;;3.95;93.80
41706;BME280;27385;51.096;17.190;2023-02-19T11:49:34;100261.37;;;3.91;92.43
41706;BME280;27385;51.096;17.190;2023-02-19T11:52:20;100264.90;;;3.89;91.54
41706;BME280;27385;51.096;17.190;2023-02-19T11:54:59;100259.14;;;3.86;91.41
41706;BME280;27385;51.096;17.190;2023-02-19T11:57:44;100265.66;;;3.83;91.91
41706;BME280;27385;51.096;17.190;2023-02-19T12:00:25;100266.09;;;3.82;91.45
41706;BME280;27385;51.096;17.190;2023-02-19T12:03:18;100263.67;;;3.84;91.67
41706;BME280;27385;51.096;17.190;2023-02-19T12:06:05;100260.07;;;3.89;91.67
41706;BME280;27385;51.096;17.190;2023-02-19T12:11:50;100265.48;;;4.06;91.58
41706;BME280;27385;51.096;17.190;2023-02-19T12:14:49;100272.60;;;4.08;88.63
41706;BME280;27385;51.096;17.190;2023-02-19T12:17:29;100274.63;;;4.13;88.42
41706;BME280;27385;51.096;17.190;2023-02-19T12:20:02;100275.73;;;4.19;89.97
41706;BME280;27385;51.096;17.190;2023-02-19T12:22:41;100282.88;;;4.32;90.62
41706;BME280;27385;51.096;17.190;2023-02-19T12:25:24;100295.23;;;4.45;89.25
41706;BME280;27385;51.096;17.190;2023-02-19T12:28:01;100299.13;;;4.55;86.31
41706;BME280;27385;51.096;17.190;2023-02-19T12:33:29;100311.59;;;4.51;84.19
41706;BME280;27385;51.096;17.190;2023-02-19T12:36:05;100308.36;;;4.47;85.72
41706;BME280;27385;51.096;17.190;2023-02-19T12:38:43;100313.61;;;4.46;85.39
41706;BME280;27385;51.096;17.190;2023-02-19T12:41:17;100316.39;;;4.45;83.98
41706;BME280;27385;51.096;17.190;2023-02-19T12:43:50;100316.55;;;4.46;83.67
41706;BME280;27385;51.096;17.190;2023-02-19T12:46:21;100316.97;;;4.45;84.07
41706;BME280;27385;51.096;17.190;2023-02-19T12:48:52;100318.20;;;4.43;83.70
41706;BME280;27385;51.096;17.190;2023-02-19T12:51:27;100328.98;;;4.41;82.94
41706;BME280;27385;51.096;17.190;2023-02-19T12:54:01;100330.59;;;4.37;82.35
41706;BME280;27385;51.096;17.190;2023-02-19T12:56:33;100337.30;;;4.34;82.80
41706;BME280;27385;51.096;17.190;2023-02-19T12:59:05;100345.59;;;4.34;83.33
41706;BME280;27385;51.096;17.190;2023-02-19T13:01:40;100339.91;;;4.40;82.60
41706;BME280;27385;51.096;17.190;2023-02-19T13:04:17;100343.84;;;4.50;82.93
41706;BME280;27385;51.096;17.190;2023-02-19T13:06:52;100355.95;;;4.57;82.15
41706;BME280;27385;51.096;17.190;2023-02-19T13:09:25;100359.81;;;4.61;81.59
41706;BME280;27385;51.096;17.190;2023-02-19T13:11:57;100360.22;;;4.63;81.30
41706;BME280;27385;51.096;17.190;2023-02-19T13:14:28;100367.15;;;4.67;82.09
41706;BME280;27385;51.096;17.190;2023-02-19T13:17:01;100370.48;;;4.69;81.91
41706;BME280;27385;51.096;17.190;2023-02-19T13:19:36;100375.73;;;4.68;80.72
41706;BME280;27385;51.096;17.190;2023-02-19T13:22:10;100375.55;;;4.63;79.27
41706;BME280;27385;51.096;17.190;2023-02-19T13:25:03;100380.14;;;4.57;77.76
41706;BME280;27385;51.096;17.190;2023-02-19T13:27:37;100384.92;;;4.53;77.66
41706;BME280;27385;51.096;17.190;2023-02-19T13:33:13;100378.40;;;4.45;77.45
41706;BME280;27385;51.096;17.190;2023-02-19T13:38:43;100378.20;;;4.43;76.88
41706;BME280;27385;51.096;17.190;2023-02-19T13:41:26;100379.06;;;4.44;76.90
41706;BME280;27385;51.096;17.190;2023-02-19T13:43:58;100385.59;;;4.44;77.18
41706;BME280;27385;51.096;17.190;2023-02-19T13:46:35;100387.05;;;4.46;77.48